createdAt,value
2022-08-21T00:01:07.312Z,51.70
2022-08-21T00:03:35.934Z,51.80
2022-08-21T00:06:05.300Z,51.70
2022-08-21T00:08:34.839Z,51.80
2022-08-21T00:11:03.740Z,51.90
2022-08-21T00:13:31.984Z,51.90
2022-08-21T00:16:00.146Z,51.90
2022-08-21T00:18:28.548Z,52.50
2022-08-21T00:20:57.132Z,52.00
2022-08-21T00:23:25.228Z,52.00
2022-08-21T00:25:54.791Z,52.00
2022-08-21T00:28:22.924Z,52.10
2022-08-21T00:30:51.823Z,52.10
2022-08-21T00:33:19.939Z,52.10
2022-08-21T00:35:48.143Z,52.00
2022-08-21T00:38:16.328Z,52.10
2022-08-21T00:40:47.783Z,52.20
2022-08-21T00:43:20.792Z,52.20
2022-08-21T00:45:49.680Z,52.20
2022-08-21T00:48:18.443Z,52.20
2022-08-21T00:50:52.651Z,52.30
2022-08-21T00:53:21.139Z,52.20
2022-08-21T00:55:49.528Z,52.30
2022-08-21T00:58:20.010Z,52.40
2022-08-21T01:00:50.511Z,52.30
2022-08-21T01:03:23.739Z,52.30
2022-08-21T01:05:52.998Z,52.20
2022-08-21T01:08:22.738Z,52.20
2022-08-21T01:10:54.604Z,52.40
2022-08-21T01:13:26.515Z,52.40
2022-08-21T01:16:00.294Z,52.40
2022-08-21T01:18:29.835Z,52.50
2022-08-21T01:21:12.597Z,52.50
2022-08-21T01:23:43.190Z,52.60
2022-08-21T01:26:12.874Z,53.20
2022-08-21T01:28:56.615Z,52.70
2022-08-21T01:31:28.303Z,52.80
2022-08-21T01:33:58.389Z,52.80
2022-08-21T01:36:28.447Z,52.80
2022-08-21T01:38:56.679Z,53.40
2022-08-21T01:41:25.272Z,52.90
2022-08-21T01:43:53.384Z,53.00
2022-08-21T01:46:21.534Z,53.20
2022-08-21T01:48:50.014Z,53.10
2022-08-21T01:51:18.231Z,53.20
2022-08-21T01:53:47.736Z,53.20
2022-08-21T01:56:18.242Z,53.20
2022-08-21T01:58:48.288Z,53.20
2022-08-21T02:01:16.976Z,53.30
2022-08-21T02:03:45.189Z,53.20
2022-08-21T02:06:18.715Z,53.20
2022-08-21T02:08:48.836Z,53.30
2022-08-21T02:11:17.212Z,53.30
2022-08-21T02:13:45.379Z,53.20
2022-08-21T02:16:19.211Z,53.20
2022-08-21T02:18:48.272Z,53.40
2022-08-21T02:21:16.768Z,53.40
2022-08-21T02:23:45.174Z,53.40
2022-08-21T02:26:15.294Z,53.50
2022-08-21T02:28:43.644Z,53.50
2022-08-21T02:31:12.366Z,53.50
2022-08-21T02:33:41.056Z,53.50
2022-08-21T02:36:11.104Z,53.40
2022-08-21T02:38:40.774Z,53.50
2022-08-21T02:41:13.924Z,53.50
2022-08-21T02:43:44.356Z,53.50
2022-08-21T02:46:14.539Z,53.50
2022-08-21T02:48:42.798Z,53.40
2022-08-21T02:51:13.718Z,53.40
2022-08-21T02:53:42.124Z,53.50
2022-08-21T02:56:13.706Z,53.50
2022-08-21T02:58:47.054Z,53.50
2022-08-21T03:01:15.571Z,53.60
2022-08-21T03:03:46.143Z,53.60
2022-08-21T03:06:16.336Z,53.60
2022-08-21T03:08:45.960Z,53.70
2022-08-21T03:11:15.200Z,53.70
2022-08-21T03:13:45.468Z,53.70
2022-08-21T03:16:13.733Z,53.70
2022-08-21T03:18:41.907Z,53.70
2022-08-21T03:21:10.128Z,53.60
2022-08-21T03:23:40.650Z,53.60
2022-08-21T03:26:08.918Z,53.70
2022-08-21T03:28:37.250Z,53.80
2022-08-21T03:31:07.381Z,53.80
2022-08-21T03:33:35.527Z,53.90
2022-08-21T03:36:08.459Z,53.90
2022-08-21T03:38:39.476Z,53.80
2022-08-21T03:41:09.343Z,53.80
2022-08-21T03:43:39.483Z,53.80
2022-08-21T03:46:09.614Z,53.80
2022-08-21T03:48:39.186Z,54.00
2022-08-21T03:51:08.404Z,53.90
2022-08-21T03:53:37.001Z,54.00
2022-08-21T03:56:06.371Z,54.00
2022-08-21T03:58:34.527Z,54.00
2022-08-21T04:01:05.534Z,53.90
2022-08-21T04:03:36.288Z,54.00
2022-08-21T04:06:05.046Z,53.80
2022-08-21T04:08:33.163Z,53.80
2022-08-21T04:11:01.550Z,53.70
2022-08-21T04:13:29.926Z,53.70
2022-08-21T04:15:59.034Z,53.70
2022-08-21T04:18:27.362Z,53.80
2022-08-21T04:20:59.684Z,53.90
2022-08-21T04:23:27.905Z,53.90
2022-08-21T04:25:57.638Z,53.80
2022-08-21T04:28:29.205Z,53.80
2022-08-21T04:30:59.463Z,53.70
2022-08-21T04:33:28.108Z,53.70
2022-08-21T04:35:57.646Z,53.70
2022-08-21T04:38:25.820Z,53.70
2022-08-21T04:40:54.570Z,53.60
2022-08-21T04:43:24.422Z,53.50
2022-08-21T04:45:54.259Z,53.50
2022-08-21T04:48:25.080Z,53.60
2022-08-21T04:50:57.336Z,53.70
2022-08-21T04:53:36.035Z,53.70
2022-08-21T04:56:09.540Z,53.70
2022-08-21T04:58:40.178Z,53.70
2022-08-21T05:01:13.187Z,53.70
2022-08-21T05:03:42.177Z,53.70
2022-08-21T05:06:14.818Z,53.60
2022-08-21T05:08:46.150Z,53.50
2022-08-21T05:11:14.512Z,53.60
2022-08-21T05:13:42.876Z,53.50
2022-08-21T05:16:11.108Z,53.40
2022-08-21T05:18:39.688Z,53.50
2022-08-21T05:21:07.879Z,53.30
2022-08-21T05:23:35.996Z,53.40
2022-08-21T05:26:06.202Z,53.50
2022-08-21T05:28:34.443Z,53.40
2022-08-21T05:31:02.692Z,53.40
2022-08-21T05:33:30.824Z,53.30
2022-08-21T05:35:59.537Z,53.30
2022-08-21T05:38:29.564Z,53.10
2022-08-21T05:40:57.804Z,53.20
2022-08-21T05:43:27.308Z,53.10
2022-08-21T05:45:55.495Z,52.90
2022-08-21T05:48:25.709Z,52.90
2022-08-21T05:50:55.267Z,52.90
2022-08-21T05:53:25.715Z,52.80
2022-08-21T05:55:54.438Z,52.70
2022-08-21T05:58:23.888Z,52.60
2022-08-21T06:00:54.339Z,52.40
2022-08-21T06:03:24.402Z,52.30
2022-08-21T06:05:52.845Z,52.10
2022-08-21T06:08:21.620Z,52.10
2022-08-21T06:10:51.363Z,52.00
2022-08-21T06:13:20.689Z,51.90
2022-08-21T06:15:49.748Z,51.80
2022-08-21T06:18:19.423Z,51.70
2022-08-21T06:20:47.665Z,51.70
2022-08-21T06:23:15.742Z,51.70
2022-08-21T06:25:44.380Z,51.70
2022-08-21T06:28:13.484Z,51.70
2022-08-21T06:30:41.897Z,51.60
2022-08-21T06:33:10.053Z,51.50
2022-08-21T06:35:41.492Z,51.40
2022-08-21T06:38:10.164Z,51.30
2022-08-21T06:40:38.954Z,51.20
2022-08-21T06:43:15.102Z,51.10
2022-08-21T06:45:43.946Z,51.00
2022-08-21T06:48:16.950Z,50.90
2022-08-21T06:50:49.369Z,50.80
2022-08-21T06:53:20.992Z,50.80
2022-08-21T06:55:50.064Z,50.70
2022-08-21T06:58:18.787Z,50.70
2022-08-21T07:00:49.295Z,50.70
2022-08-21T07:03:26.720Z,50.70
2022-08-21T07:05:57.757Z,50.50
2022-08-21T07:08:26.560Z,50.40
2022-08-21T07:10:57.087Z,50.40
2022-08-21T07:13:25.308Z,50.50
2022-08-21T07:15:53.785Z,50.50
2022-08-21T07:18:22.252Z,50.40
2022-08-21T07:20:50.939Z,50.40
2022-08-21T07:23:28.347Z,50.40
2022-08-21T07:25:57.113Z,50.60
2022-08-21T07:28:25.243Z,50.50
2022-08-21T07:30:55.304Z,50.40
2022-08-21T07:33:24.189Z,50.20
2022-08-21T07:35:52.499Z,50.10
2022-08-21T07:38:21.999Z,50.10
2022-08-21T07:40:52.497Z,49.90
2022-08-21T07:43:20.729Z,49.80
2022-08-21T07:45:50.253Z,49.60
2022-08-21T07:48:18.478Z,49.60
2022-08-21T07:50:46.758Z,49.70
2022-08-21T07:53:15.388Z,49.60
2022-08-21T07:55:45.046Z,49.50
2022-08-21T07:58:13.690Z,49.40
2022-08-21T08:00:42.956Z,49.00
2022-08-21T08:03:11.087Z,48.70
2022-08-21T08:05:40.223Z,48.30
2022-08-21T08:08:08.624Z,48.10
2022-08-21T08:10:37.341Z,47.80
2022-08-21T08:13:06.979Z,47.70
2022-08-21T08:15:38.957Z,47.50
2022-08-21T08:18:07.168Z,47.50
2022-08-21T08:20:35.677Z,47.40
2022-08-21T08:23:04.278Z,47.30
2022-08-21T08:25:36.659Z,47.20
2022-08-21T08:28:17.147Z,47.10
2022-08-21T08:30:46.967Z,47.00
2022-08-21T08:33:15.745Z,46.80
2022-08-21T08:35:46.749Z,46.70
2022-08-21T08:38:19.543Z,46.60
2022-08-21T08:40:55.627Z,46.40
2022-08-21T08:43:25.164Z,46.20
2022-08-21T08:45:58.953Z,45.90
2022-08-21T08:48:40.906Z,45.70
2022-08-21T08:51:16.865Z,45.30
2022-08-21T08:53:53.136Z,45.10
2022-08-21T08:56:28.329Z,44.90
2022-08-21T08:59:03.702Z,44.80
2022-08-21T09:01:36.746Z,44.70
2022-08-21T09:04:07.251Z,44.50
2022-08-21T09:06:57.278Z,44.40
2022-08-21T09:09:36.273Z,44.30
2022-08-21T09:12:10.092Z,44.20
2022-08-21T09:14:55.887Z,44.20
2022-08-21T09:17:40.109Z,43.90
2022-08-21T09:20:19.613Z,43.60
2022-08-21T09:23:02.928Z,43.40
2022-08-21T09:25:35.395Z,43.20
2022-08-21T09:28:03.716Z,43.00
2022-08-21T09:30:34.775Z,42.80
2022-08-21T09:33:02.931Z,42.50
2022-08-21T09:35:31.172Z,42.50
2022-08-21T09:38:03.244Z,42.50
2022-08-21T09:40:38.570Z,42.50
2022-08-21T09:43:09.001Z,42.40
2022-08-21T09:45:39.584Z,42.30
2022-08-21T09:48:12.172Z,42.00
2022-08-21T09:50:40.757Z,41.80
2022-08-21T09:53:19.565Z,41.60
2022-08-21T09:56:11.544Z,41.30
2022-08-21T09:58:43.112Z,41.20
2022-08-21T10:01:17.890Z,41.20
2022-08-21T10:03:46.698Z,40.90
2022-08-21T10:06:25.581Z,40.80
2022-08-21T10:09:05.061Z,40.40
2022-08-21T10:11:34.249Z,40.30
2022-08-21T10:14:13.398Z,40.10
2022-08-21T10:16:54.286Z,39.90
2022-08-21T10:19:28.531Z,39.90
2022-08-21T10:22:08.683Z,39.70
2022-08-21T10:24:45.272Z,39.40
2022-08-21T10:27:23.295Z,39.20
2022-08-21T10:29:57.435Z,39.00
2022-08-21T10:33:00.256Z,38.70
2022-08-21T10:35:33.259Z,38.40
2022-08-21T10:38:50.388Z,38.30
2022-08-21T10:41:34.065Z,38.00
2022-08-21T10:44:13.656Z,37.70
2022-08-21T10:46:52.324Z,37.40
2022-08-21T10:49:33.420Z,37.30
2022-08-21T10:52:20.472Z,37.00
2022-08-21T10:54:54.700Z,37.20
2022-08-21T10:57:40.576Z,36.40
2022-08-21T11:00:13.399Z,36.00
2022-08-21T11:02:47.219Z,35.80
2022-08-21T11:05:21.362Z,35.30
2022-08-21T11:07:55.153Z,35.00
2022-08-21T11:10:30.817Z,35.40
2022-08-21T11:13:03.954Z,34.50
2022-08-21T11:15:39.273Z,34.40
2022-08-21T11:18:19.518Z,34.30
2022-08-21T11:21:01.057Z,33.80
2022-08-21T11:23:38.167Z,33.50
2022-08-21T11:26:11.680Z,33.20
2022-08-21T11:28:47.443Z,32.70
2022-08-21T11:31:29.833Z,32.60
2022-08-21T11:34:11.582Z,32.10
2022-08-21T11:36:47.347Z,31.60
2022-08-21T11:39:23.449Z,31.50
2022-08-21T11:42:08.433Z,31.00
2022-08-21T11:44:46.367Z,30.50
2022-08-21T11:47:17.700Z,30.10
2022-08-21T11:49:59.663Z,29.80
2022-08-21T11:52:34.260Z,29.60
2022-08-21T11:55:06.478Z,29.50
2022-08-21T11:57:41.643Z,29.30
2022-08-21T12:00:21.828Z,29.30
2022-08-21T12:02:54.450Z,29.10
2022-08-21T12:05:31.474Z,29.00
2022-08-21T12:08:08.612Z,28.80
2022-08-21T12:13:14.581Z,28.10
2022-08-21T12:15:42.781Z,28.40
2022-08-21T12:18:26.146Z,28.30
2022-08-21T12:21:04.896Z,28.10
2022-08-21T12:23:45.187Z,28.20
2022-08-21T12:26:26.999Z,28.10
2022-08-21T12:29:18.336Z,27.80
2022-08-21T12:32:01.623Z,27.80
2022-08-21T12:34:38.837Z,27.90
2022-08-21T12:37:13.890Z,27.90
2022-08-21T12:39:48.853Z,28.20
2022-08-21T12:42:22.884Z,28.30
2022-08-21T12:44:55.825Z,28.60
2022-08-21T12:47:31.839Z,29.00
2022-08-21T12:50:06.912Z,29.10
2022-08-21T12:52:39.587Z,29.50
2022-08-21T12:55:14.325Z,29.60
2022-08-21T12:57:43.899Z,29.80
2022-08-21T13:00:15.496Z,30.00
2022-08-21T13:02:48.583Z,30.10
2022-08-21T13:05:22.561Z,30.30
2022-08-21T13:07:51.228Z,30.60
2022-08-21T13:10:23.004Z,30.70
2022-08-21T13:12:51.745Z,31.00
2022-08-21T13:15:29.611Z,31.20
2022-08-21T13:18:03.847Z,31.40
2022-08-21T13:20:35.475Z,31.70
2022-08-21T13:23:04.370Z,31.90
2022-08-21T13:25:39.521Z,32.10
2022-08-21T13:28:09.996Z,32.10
2022-08-21T13:30:44.292Z,32.10
2022-08-21T13:33:14.473Z,32.20
2022-08-21T13:35:51.362Z,32.20
2022-08-21T13:38:28.973Z,32.60
2022-08-21T13:41:06.043Z,32.70
2022-08-21T13:43:36.812Z,33.00
2022-08-21T13:46:11.207Z,32.90
2022-08-21T13:48:40.419Z,33.00
2022-08-21T13:51:08.917Z,33.00
2022-08-21T13:53:45.866Z,32.90
2022-08-21T13:56:26.565Z,33.10
2022-08-21T13:58:58.142Z,33.00
2022-08-21T14:01:30.389Z,33.10
2022-08-21T14:04:06.196Z,33.20
2022-08-21T14:06:38.425Z,33.30
2022-08-21T14:09:12.312Z,33.30
2022-08-21T14:11:42.486Z,33.40
2022-08-21T14:14:21.596Z,33.50
2022-08-21T14:17:00.868Z,33.70
2022-08-21T14:19:49.161Z,33.60
2022-08-21T14:22:42.520Z,33.70
2022-08-21T14:25:15.773Z,33.80
2022-08-21T14:27:52.505Z,33.70
2022-08-21T14:30:24.298Z,33.70
2022-08-21T14:32:52.959Z,33.70
2022-08-21T14:35:23.750Z,33.60
2022-08-21T14:37:53.292Z,33.60
2022-08-21T14:40:23.538Z,33.60
2022-08-21T14:42:53.497Z,33.70
2022-08-21T14:45:28.391Z,33.80
2022-08-21T14:47:56.878Z,34.00
2022-08-21T14:50:28.145Z,34.20
2022-08-21T14:52:57.203Z,34.30
2022-08-21T14:55:25.588Z,34.50
2022-08-21T14:57:56.847Z,34.60
2022-08-21T15:00:35.563Z,34.60
2022-08-21T15:03:05.190Z,34.60
2022-08-21T15:05:34.167Z,34.70
2022-08-21T15:08:02.631Z,34.80
2022-08-21T15:10:41.349Z,34.90
2022-08-21T15:13:22.994Z,35.00
2022-08-21T15:15:53.680Z,35.00
2022-08-21T15:18:22.062Z,34.90
2022-08-21T15:20:50.652Z,34.80
2022-08-21T15:23:19.286Z,34.80
2022-08-21T15:25:49.516Z,35.00
2022-08-21T15:28:19.631Z,35.00
2022-08-21T15:30:49.794Z,35.10
2022-08-21T15:33:18.180Z,35.20
2022-08-21T15:35:47.767Z,35.30
2022-08-21T15:38:16.936Z,35.30
2022-08-21T15:40:51.718Z,35.20
2022-08-21T15:43:29.969Z,35.20
2022-08-21T15:46:01.191Z,35.30
2022-08-21T15:48:29.791Z,35.20
2022-08-21T15:50:58.041Z,35.20
2022-08-21T15:53:26.170Z,35.20
2022-08-21T15:55:55.440Z,35.00
2022-08-21T15:58:24.401Z,34.90
2022-08-21T16:00:52.719Z,34.90
2022-08-21T16:03:23.000Z,35.00
2022-08-21T16:05:53.266Z,35.00
2022-08-21T16:08:21.888Z,35.10
2022-08-21T16:10:50.277Z,35.20
2022-08-21T16:13:23.401Z,35.30
2022-08-21T16:15:52.262Z,35.30
2022-08-21T16:18:23.188Z,35.30
2022-08-21T16:20:52.083Z,35.30
2022-08-21T16:23:20.864Z,35.40
2022-08-21T16:25:50.117Z,35.30
2022-08-21T16:28:20.928Z,35.20
2022-08-21T16:30:51.820Z,35.10
2022-08-21T16:33:26.385Z,35.30
2022-08-21T16:35:54.832Z,35.10
2022-08-21T16:38:23.242Z,35.40
2022-08-21T16:40:51.593Z,35.60
2022-08-21T16:43:28.252Z,35.60
2022-08-21T16:45:58.400Z,35.60
2022-08-21T16:48:28.331Z,35.50
2022-08-21T16:50:56.739Z,35.30
2022-08-21T16:53:27.653Z,35.30
2022-08-21T16:55:55.885Z,35.30
2022-08-21T16:58:27.553Z,35.40
2022-08-21T17:00:56.396Z,35.30
2022-08-21T17:03:31.208Z,35.40
2022-08-21T17:05:59.564Z,35.60
2022-08-21T17:08:27.963Z,35.90
2022-08-21T17:10:56.866Z,36.10
2022-08-21T17:13:26.196Z,36.10
2022-08-21T17:15:55.322Z,36.30
2022-08-21T17:18:25.033Z,36.40
2022-08-21T17:20:55.083Z,36.50
2022-08-21T17:23:23.320Z,36.40
2022-08-21T17:25:54.577Z,36.30
2022-08-21T17:28:26.099Z,36.20
2022-08-21T17:30:56.849Z,36.10
2022-08-21T17:33:25.941Z,36.20
2022-08-21T17:35:55.932Z,36.30
2022-08-21T17:38:24.094Z,36.40
2022-08-21T17:40:56.076Z,37.20
2022-08-21T17:43:25.860Z,36.90
2022-08-21T17:45:54.589Z,37.20
2022-08-21T17:48:25.467Z,37.60
2022-08-21T17:50:55.268Z,37.80
2022-08-21T17:53:23.535Z,38.00
2022-08-21T17:55:52.513Z,38.20
2022-08-21T17:58:20.741Z,38.30
2022-08-21T18:00:49.187Z,38.50
2022-08-21T18:03:20.575Z,38.60
2022-08-21T18:05:50.637Z,38.90
2022-08-21T18:08:20.462Z,39.00
2022-08-21T18:10:51.377Z,39.30
2022-08-21T18:13:23.550Z,39.50
2022-08-21T18:15:53.963Z,39.60
2022-08-21T18:18:22.436Z,39.70
2022-08-21T18:20:51.508Z,39.90
2022-08-21T18:23:21.035Z,40.00
2022-08-21T18:26:09.641Z,40.10
2022-08-21T18:28:38.389Z,40.20
2022-08-21T18:31:09.497Z,40.30
2022-08-21T18:33:38.884Z,40.50
2022-08-21T18:36:07.830Z,40.70
2022-08-21T18:38:40.772Z,40.80
2022-08-21T18:41:09.658Z,41.00
2022-08-21T18:43:39.047Z,41.00
2022-08-21T18:46:07.298Z,41.10
2022-08-21T18:48:35.460Z,41.20
2022-08-21T18:51:04.316Z,41.40
2022-08-21T18:53:36.535Z,41.50
2022-08-21T18:56:07.218Z,41.60
2022-08-21T18:58:45.121Z,41.80
2022-08-21T19:01:14.203Z,41.90
2022-08-21T19:03:42.433Z,41.90
2022-08-21T19:06:11.963Z,42.00
2022-08-21T19:08:40.345Z,42.20
2022-08-21T19:11:10.553Z,42.20
2022-08-21T19:13:39.704Z,42.40
2022-08-21T19:16:09.644Z,42.50
2022-08-21T19:18:42.034Z,42.50
2022-08-21T19:21:10.380Z,42.70
2022-08-21T19:23:38.567Z,42.70
2022-08-21T19:26:12.797Z,42.90
2022-08-21T19:28:45.954Z,43.10
2022-08-21T19:31:17.779Z,43.30
2022-08-21T19:33:52.663Z,43.60
2022-08-21T19:36:22.773Z,43.90
2022-08-21T19:38:50.920Z,44.00
2022-08-21T19:41:22.829Z,44.10
2022-08-21T19:43:56.311Z,44.20
2022-08-21T19:46:27.811Z,44.30
2022-08-21T19:48:57.489Z,44.30
2022-08-21T19:51:26.200Z,44.40
2022-08-21T19:53:57.149Z,44.50
2022-08-21T19:56:28.951Z,44.60
2022-08-21T19:58:57.767Z,44.70
2022-08-21T20:01:27.869Z,44.80
2022-08-21T20:03:57.361Z,44.90
2022-08-21T20:06:26.244Z,44.90
2022-08-21T20:08:56.038Z,45.00
2022-08-21T20:11:31.401Z,45.10
2022-08-21T20:14:00.673Z,45.40
2022-08-21T20:16:29.835Z,45.50
2022-08-21T20:18:58.571Z,45.60
2022-08-21T20:21:26.979Z,45.60
2022-08-21T20:23:55.980Z,45.60
2022-08-21T20:26:25.097Z,45.70
2022-08-21T20:28:55.223Z,45.60
2022-08-21T20:31:24.272Z,46.40
2022-08-21T20:33:52.769Z,45.70
2022-08-21T20:36:22.636Z,45.90
2022-08-21T20:38:51.810Z,45.90
2022-08-21T20:41:30.281Z,46.00
2022-08-21T20:44:01.713Z,46.00
2022-08-21T20:46:33.331Z,46.20
2022-08-21T20:49:02.038Z,46.50
2022-08-21T20:51:36.044Z,46.60
2022-08-21T20:54:09.267Z,46.80
2022-08-21T20:56:44.862Z,46.70
2022-08-21T20:59:32.060Z,46.80
2022-08-21T21:02:15.432Z,46.90
2022-08-21T21:04:49.194Z,46.80
2022-08-21T21:07:25.308Z,46.70
2022-08-21T21:09:56.534Z,46.70
2022-08-21T21:12:32.672Z,46.80
2022-08-21T21:15:08.147Z,46.90
2022-08-21T21:17:46.178Z,47.00
2022-08-21T21:20:21.706Z,47.00
2022-08-21T21:23:00.325Z,47.10
2022-08-21T21:25:40.020Z,47.20
2022-08-21T21:28:13.559Z,47.20
2022-08-21T21:30:46.453Z,47.20
2022-08-21T21:33:16.628Z,47.30
2022-08-21T21:35:50.564Z,47.40
2022-08-21T21:41:22.092Z,47.60
2022-08-21T21:44:09.002Z,47.70
2022-08-21T21:46:49.123Z,47.70
2022-08-21T21:49:49.485Z,47.70
2022-08-21T21:52:32.090Z,47.70
2022-08-21T21:55:24.029Z,47.80
2022-08-21T21:58:07.401Z,47.90
2022-08-21T22:00:47.195Z,47.80
2022-08-21T22:03:27.327Z,47.90
2022-08-21T22:06:00.414Z,47.90
2022-08-21T22:08:40.484Z,47.90
2022-08-21T22:11:29.505Z,48.00
2022-08-21T22:14:21.559Z,48.00
2022-08-21T22:16:52.213Z,48.00
2022-08-21T22:19:27.071Z,48.00
2022-08-21T22:22:01.000Z,48.10
2022-08-21T22:24:35.436Z,48.20
2022-08-21T22:27:07.029Z,48.20
2022-08-21T22:29:48.318Z,48.30
2022-08-21T22:32:25.649Z,48.40
2022-08-21T22:35:12.200Z,48.40
2022-08-21T22:37:42.240Z,48.60
2022-08-21T22:40:15.796Z,48.70
2022-08-21T22:42:44.147Z,48.80
2022-08-21T22:45:14.480Z,48.80
2022-08-21T22:47:48.271Z,48.90
2022-08-21T22:50:29.193Z,49.00
2022-08-21T22:53:00.749Z,49.70
2022-08-21T22:55:37.539Z,49.10
2022-08-21T22:58:09.689Z,49.20
2022-08-21T23:00:53.805Z,49.30
2022-08-21T23:03:32.533Z,49.40
2022-08-21T23:06:12.946Z,49.40
2022-08-21T23:08:41.467Z,49.30
2022-08-21T23:11:15.877Z,49.30
2022-08-21T23:13:47.427Z,49.40
2022-08-21T23:16:30.775Z,49.30
2022-08-21T23:19:04.346Z,49.40
2022-08-21T23:21:46.802Z,49.40
2022-08-21T23:24:49.835Z,49.40
2022-08-21T23:27:31.969Z,49.50
2022-08-21T23:30:10.663Z,49.50
2022-08-21T23:33:07.403Z,49.60
2022-08-21T23:36:10.100Z,49.80
2022-08-21T23:38:53.187Z,49.80
2022-08-21T23:41:34.743Z,49.90
2022-08-21T23:44:17.113Z,49.90
2022-08-21T23:47:00.341Z,50.10
2022-08-21T23:49:43.937Z,50.10
2022-08-21T23:52:20.490Z,50.10
2022-08-21T23:55:01.701Z,50.10
2022-08-21T23:57:44.693Z,50.10
